Flight Track Log - Related Links

Times and Time Zones

All times are in EDT time to prevent confusion due to time zone crossing. See the SWA385 flight status page for this flight to view local times or setup timezone preferences in your user account.

Time Position Orientation Groundspeed Altitude Reporting Facility
EDT Latitude Longitude Course Direction KTS MPH feet Rate Location/Type
Tue 12:06:58 AM 38.6833 -121.6000 134° Southeast 142 163 1,400  Level Northern Cal TRACON
Tue 12:07:53 AM 38.6333 -121.5333 134° Southeast 235 270 3,500 3,211 Climbing Northern Cal TRACON
Tue 12:08:52 AM 38.6000 -121.4667 123° Southeast 267 307 7,500 4,134 Climbing Northern Cal TRACON
Tue 12:09:52 AM 38.5667 -121.3667 113° Southeast 287 330 11,700 4,050 Climbing Northern Cal TRACON
Tue 12:10:52 AM 38.5167 -121.2833 127° Southeast 332 382 15,600 3,620 Climbing Northern Cal TRACON
Tue 12:11:53 AM 38.4667 -121.1667 119° Southeast 353 406 19,000 1,843 Climbing Northern Cal TRACON
Tue 12:12:00 AM 38.2766 -121.2575 134° Southeast  Level Estimated
Tue 12:13:12 AM 38.3925 -121.0181 122° Southeast 363 418 19,900  Level Oakland Center
Tue 12:14:13 AM 38.3378 -120.9033 121° Southeast 375 432 23,200 3,049 Climbing Oakland Center
Tue 12:15:14 AM 38.2803 -120.7836 121° Southeast 393 452 26,100 2,705 Climbing Oakland Center
Tue 12:16:15 AM 38.2136 -120.6644 125° Southeast 408 470 28,700 2,016 Climbing Oakland Center
Tue 12:17:16 AM 38.1219 -120.5736 142° Southeast 413 475 30,200 1,756 Climbing Oakland Center
Tue 12:18:18 AM 38.0308 -120.4839 142° Southeast 414 476 32,300 2,341 Climbing Oakland Center
Tue 12:19:19 AM 37.9389 -120.3964 143° Southeast 410 472 35,000 2,311 Climbing Oakland Center
Tue 12:20:20 AM 37.8508 -120.3100 142° Southeast 401 461 37,000 984 Climbing Oakland Center
Tue 12:21:21 AM 37.7625 -120.2253 143° Southeast 398 458 37,000 590 Level Oakland Center
Tue 12:22:22 AM 37.6689 -120.1542 149° Southeast 395 455 38,200 1,525 Climbing Oakland Center
Tue 12:23:23 AM 37.5656 -120.1189 165° South 382 440 40,100 1,377 Climbing Oakland Center
Tue 12:24:24 AM 37.4617 -120.0864 166° South 382 440 41,000 443 Climbing Oakland Center
Tue 12:25:25 AM 37.3347 -120.0453 166° South 391 450 41,000  Level Oakland Center
Tue 12:26:26 AM 37.2294 -120.0106 165° South 391 450 41,000  Level Oakland Center
Tue 12:27:27 AM 37.1233 -119.9778 166° South 391 450 41,000  Level Oakland Center
Tue 12:28:28 AM 37.0208 -119.9439 165° South 392 451 41,000  Level Oakland Center
Tue 12:29:30 AM 36.9147 -119.9092 165° South 393 452 41,000  Level Oakland Center
Tue 12:30:31 AM 36.8103 -119.8767 166° South 387 445 41,000  Level Oakland Center
Tue 12:31:32 AM 36.7025 -119.8425 166° South 395 455 41,000  Level Oakland Center
Tue 12:32:33 AM 36.5969 -119.8094 166° South 393 452 41,000  Level Oakland Center
Tue 12:33:34 AM 36.4892 -119.7756 166° South 396 456 41,000  Level Oakland Center
Tue 12:34:35 AM 36.3814 -119.7414 166° South 398 458 41,000  Level Oakland Center
Tue 12:35:36 AM 36.2533 -119.7008 166° South 396 456 41,000  Level Oakland Center
Tue 12:36:37 AM 36.1475 -119.6669 166° South 393 452 41,000  Level Oakland Center
Tue 12:37:38 AM 36.0419 -119.6333 166° South 391 450 41,000  Level Oakland Center
Tue 12:38:39 AM 35.9358 -119.6139 172° South 387 445 41,000  Level Oakland Center
Tue 12:39:40 AM 35.8275 -119.6217 183° South 386 444 41,000  Level Oakland Center
Tue 12:40:42 AM 35.7175 -119.6172 178° South 385 443 41,000  Level Oakland Center
Tue 12:41:43 AM 35.6097 -119.5922 169° South 388 447 41,000  Level Oakland Center
Tue 12:42:41 AM 35.5019 -119.5706 171° South 394 453 41,000  Level Los Angeles Center
Tue 12:43:43 AM 35.3950 -119.5469 170° South 390 449 41,000  Level Los Angeles Center
Tue 12:44:44 AM 35.2939 -119.4950 157° South 394 453 41,000  Level Los Angeles Center
Tue 12:45:46 AM 35.1939 -119.4394 156° South 393 452 41,000  Level Los Angeles Center
Tue 12:46:47 AM 35.0944 -119.3828 155° Southeast 393 452 41,000  Level Los Angeles Center
Tue 12:47:48 AM 34.9950 -119.3256 155° Southeast 394 453 41,000 -341 Level Los Angeles Center
Tue 12:48:50 AM 34.8956 -119.2694 155° Southeast 394 453 40,300 -927 Descending Los Angeles Center
Tue 12:49:51 AM 34.7789 -119.2050 156° South 384 442 39,100 -1,805 Descending Los Angeles Center
Tue 12:50:53 AM 34.6831 -119.1511 155° Southeast 381 438 36,600 -2,780 Descending Los Angeles Center
Tue 12:51:54 AM 34.5817 -119.0950 156° South 381 438 33,400 -3,171 Descending Los Angeles Center
Tue 12:52:56 AM 34.4811 -119.0381 155° Southeast 394 453 30,100 -2,878 Descending Los Angeles Center
Tue 12:53:57 AM 34.3803 -118.9833 156° South 399 459 27,500 -2,607 Descending Los Angeles Center
Tue 12:54:58 AM 34.2822 -118.9286 155° Southeast 391 450 24,800 -2,634 Descending Los Angeles Center
Tue 12:56:00 AM 34.1836 -118.8714 154° Southeast 393 452 22,100 -2,634 Descending Los Angeles Center
Tue 12:57:01 AM 34.0858 -118.8178 156° South 388 447 19,400 -2,878 Descending Los Angeles Center
Tue 12:58:03 AM 33.9781 -118.7572 155° Southeast 378 435 16,200 -2,634 Descending Los Angeles Center
Tue 12:59:04 AM 33.8869 -118.7089 156° South 361 415 14,000 -1,902 Descending Los Angeles Center
Tue 01:00:06 AM 33.7928 -118.6761 164° South 337 388 12,300 -1,756 Descending Los Angeles Center
Tue 01:01:07 AM 33.7050 -118.6439 163° South 333 383 10,400 -1,463 Descending Los Angeles Center
Tue 01:02:09 AM 33.6244 -118.6139 163° South 309 356 9,300 -1,220 Descending Los Angeles Center
Tue 01:03:10 AM 33.5964 -118.5311 112° Southeast 297 342 7,900 -1,522 Descending Los Angeles Center
Tue 01:04:23 AM 33.5911 -118.4333 94° East 295 339 5,900 -1,244 Descending Los Angeles Center
Tue 01:05:25 AM 33.5961 -118.3042 87° East 287 330 5,100 -387 Descending Los Angeles Center
Tue 01:06:27 AM 33.6311 -118.2269 61° Northeast 276 318 5,100 -49 Level Los Angeles Center
Tue 01:07:28 AM 33.6628 -118.1533 63° Northeast 263 303 5,000 -488 Descending Los Angeles Center
Tue 01:08:30 AM 33.6950 -118.0839 61° Northeast 247 284 4,100 -927 Descending Los Angeles Center
Tue 01:09:31 AM 33.7256 -118.0131 63° Northeast 243 280 3,100 -492 Descending Los Angeles Center
Tue 01:10:32 AM 33.7536 -117.9475 63° Northeast 234 269 3,100 -439 Level Los Angeles Center
Tue 01:11:34 AM 33.7503 -117.8939 94° East 192 221 2,200 -1,024 Descending Los Angeles Center
Tue 01:12:35 AM 33.7244 -117.8519 127° Southeast 149 171 1,000 -927 Descending Los Angeles Center
Tue 01:13:37 AM 33.6911 -117.8586 189° South 134 154 300 -341 Descending Los Angeles Center
Tue 01:14:38 AM 33.6583 -117.8761 204° Southwest 134 154 300  Level Los Angeles Center
Tue 01:16:00 AM 33.6667 -117.8667 132° Southeast  Level FlightAware Approximate
Tue 01:23:00 AM 33.6757 -117.8682 132° Southeast  Level Estimated

Login

Don't have an account? Register now (free) for customized features, flight alerts, and more!